This is the latest recevied weather packets stored in our database for station/object KE6JJJ-1. If no packets are shown the sender has not sent any weather packets the latest 10 day(s).
| Time | Temp. | Humidity | Pressure | Rain* | Wind** | Luminosity | Snow |
|---|---|---|---|---|---|---|---|
| 1777766704 | 15.56° C | 73% | 1011.9 hPa | 0 mm | - | 262 W/m² | - |
| 1777764941 | 15.56° C | 71% | 1012.3 hPa | 0 mm | - | 404 W/m² | - |
| 1777764903 | 15.56° C | 71% | 1012.3 hPa | 0 mm | - | 404 W/m² | - |
| 1777763104 | 16.67° C | 71% | 1012.5 hPa | 0 mm | - | 366 W/m² | - |
| 1777761304 | 16.11° C | 71% | 1013 hPa | 0 mm | - | 406 W/m² | - |
| 1777759504 | 15.56° C | 72% | 1013.4 hPa | 0 mm | - | 452 W/m² | - |
| 1777757703 | 15.56° C | 71% | 1013.4 hPa | 0 mm | - | 377 W/m² | - |
| 1777755903 | 16.67° C | 69% | 1013.6 hPa | 0 mm | - | 436 W/m² | - |
| 1777754233 | 16.11° C | 70% | 1013.9 hPa | 0 mm | - | 580 W/m² | - |
| 1777754103 | 16.11° C | 70% | 1013.9 hPa | 0 mm | - | 580 W/m² | - |
| 1777752338 | 15.56° C | 72% | 1014.1 hPa | 0 mm | - | 497 W/m² | - |
| 1777752304 | 15.56° C | 72% | 1014.1 hPa | 0 mm | - | 497 W/m² | - |
| 1777750504 | 15.56° C | 73% | 1014.3 hPa | 0 mm | - | 559 W/m² | - |
| 1777748708 | 15° C | 77% | 1014.1 hPa | 0 mm | - | 394 W/m² | - |
| 1777746903 | 14.44° C | 79% | 1014.2 hPa | 0 mm | - | 174 W/m² | - |
| 1777745104 | 14.44° C | 79% | 1014.1 hPa | 0 mm | - | 225 W/m² | - |
| 1777743304 | 13.89° C | 80% | 1014 hPa | 0 mm | - | 132 W/m² | - |
| 1777741503 | 13.89° C | 82% | 1014 hPa | 0 mm | - | 216 W/m² | - |
| 1777739703 | 13.33° C | 83% | 1014 hPa | 0 mm | - | 109 W/m² | - |
| 1777737903 | 13.33° C | 85% | 1013.9 hPa | 0 mm | - | 56 W/m² | - |
| 1777736103 | 13.33° C | 85% | 1013.6 hPa | 0 mm | - | 35 W/m² | - |
| 1777734304 | 13.33° C | 85% | 1013.5 hPa | 0 mm | - | 30 W/m² | - |
| 1777732504 | 12.78° C | 86% | 1013.2 hPa | 0 mm | - | 28 W/m² | - |
| 1777730714 | 12.78° C | 86% | 1013.2 hPa | 0 mm | - | 14 W/m² | - |
| 1777728903 | 12.78° C | 86% | 1012.8 hPa | 0 mm | - | 5 W/m² | - |
* Rain latest hour (hover to see other rain measurements)
** Current wind speed in m/s (hover to see current wind gust speed)